Time;durP1;ratioP1;P1;durP2;ratioP2;P2;SDS_P1;SDS_P2;PMS_P1;PMS_P2;Temp;Humidity;BMP_temperature;BMP_pressure;BME280_temperature;BME280_humidity;BME280_pressure;Samples;Min_cycle;Max_cycle;Signal;HPM_P1;HPM_P2
2021/04/12 00:02:15;;;;;;;1.83;1.30;;;7.20;71.20;;;;;;5052319;28;20090;-68
2021/04/12 00:04:51;;;;;;;1.60;1.50;;;7.10;71.20;;;;;;4996232;28;20048;-67
2021/04/12 00:07:34;;;;;;;1.77;1.67;;;7.00;71.40;;;;;;5033420;28;20074;-67
2021/04/12 00:10:22;;;;;;;1.95;1.73;;;6.90;71.30;;;;;;5039803;28;20074;-68
2021/04/12 00:12:57;;;;;;;1.83;1.73;;;6.80;71.40;;;;;;5043608;28;20033;-67
2021/04/12 00:15:52;;;;;;;2.10;2.00;;;6.70;71.40;;;;;;5052061;28;20025;-67
2021/04/12 00:18:29;;;;;;;2.05;1.88;;;6.60;71.70;;;;;;5052239;28;20048;-67
2021/04/12 00:20:59;;;;;;;3.63;2.20;;;6.60;71.70;;;;;;5052050;28;20024;-67
2021/04/12 00:23:46;;;;;;;2.22;2.00;;;6.60;71.80;;;;;;5052494;28;20040;-67
2021/04/12 00:26:27;;;;;;;1.77;1.67;;;6.50;71.70;;;;;;5049955;28;20032;-67
2021/04/12 00:29:00;;;;;;;2.33;2.13;;;6.50;71.50;;;;;;5038997;28;20330;-68
2021/04/12 00:31:37;;;;;;;2.80;2.60;;;6.40;71.30;;;;;;5049193;28;20033;-67
2021/04/12 00:34:36;;;;;;;2.75;2.55;;;6.20;71.30;;;;;;5057836;28;20558;-67
2021/04/12 00:37:18;;;;;;;3.00;2.80;;;6.10;71.20;;;;;;5036808;28;20024;-66
2021/04/12 00:39:53;;;;;;;3.75;2.97;;;5.90;71.40;;;;;;5042379;28;20396;-66
2021/04/12 00:42:56;;;;;;;3.40;3.10;;;5.90;71.60;;;;;;5051817;28;20388;-66
2021/04/12 00:45:27;;;;;;;;;;;5.80;71.80;;;;;;5051546;28;20031;-66
2021/04/12 00:48:21;;;;;;;3.20;3.00;;;5.80;71.30;;;;;;5052589;28;19919;-67
2021/04/12 00:51:27;;;;;;;4.85;3.45;;;5.70;71.60;;;;;;5052405;28;20461;-67
2021/04/12 00:53:56;;;;;;;3.33;3.03;;;5.70;71.70;;;;;;5051354;28;20024;-67
2021/04/12 00:56:37;;;;;;;5.72;3.00;;;5.70;71.80;;;;;;5052230;28;20025;-67
2021/04/12 00:59:19;;;;;;;3.05;2.85;;;5.60;71.80;;;;;;5052321;28;20488;-66
2021/04/12 01:01:52;;;;;;;3.47;3.17;;;5.60;71.90;;;;;;5052265;28;20112;-66
2021/04/12 01:04:45;;;;;;;3.15;2.85;;;5.60;72.00;;;;;;5053167;28;20516;-66
2021/04/12 01:07:29;;;;;;;3.25;2.95;;;5.50;72.00;;;;;;5053196;28;20085;-68
2021/04/12 01:10:14;;;;;;;4.45;3.15;;;5.60;72.10;;;;;;5052137;28;20055;-66
2021/04/12 01:13:17;;;;;;;2.85;2.65;;;5.60;72.00;;;;;;5051888;28;20017;-68
2021/04/12 01:16:00;;;;;;;3.42;3.03;;;5.50;72.00;;;;;;5032060;28;20453;-68
2021/04/12 01:18:33;;;;;;;2.70;2.50;;;5.50;71.90;;;;;;5066342;28;20032;-69
2021/04/12 01:21:36;;;;;;;3.35;3.03;;;5.50;71.80;;;;;;5051979;28;20123;-68
2021/04/12 01:24:39;;;;;;;2.63;2.45;;;5.50;72.00;;;;;;5047445;28;20025;-69
2021/04/12 01:27:23;;;;;;;;;;;5.40;72.00;;;;;;5051511;28;20025;-68
2021/04/12 01:30:14;;;;;;;2.90;2.70;;;5.40;71.40;;;;;;5062311;28;19915;-69
2021/04/12 01:33:02;;;;;;;2.60;2.40;;;5.30;71.60;;;;;;5045463;28;20309;-69
2021/04/12 01:35:33;;;;;;;2.80;2.60;;;5.30;71.90;;;;;;5063086;28;20165;-68
2021/04/12 01:38:21;;;;;;;3.10;2.80;;;5.30;72.00;;;;;;5055729;28;20024;-68
2021/04/12 01:40:46;;;;;;;2.90;2.60;;;5.30;72.20;;;;;;5044832;28;20536;-68
2021/04/12 01:43:24;;;;;;;3.30;2.83;;;5.30;72.00;;;;;;5055860;28;20055;-68
2021/04/12 01:46:06;;;;;;;3.38;3.08;;;5.30;72.10;;;;;;5052385;28;20024;-68
2021/04/12 01:49:09;;;;;;;2.95;2.75;;;5.30;72.60;;;;;;5068774;28;20069;-68
2021/04/12 01:51:49;;;;;;;3.08;2.72;;;5.30;72.10;;;;;;5055751;28;20415;-68
2021/04/12 01:54:42;;;;;;;3.38;3.10;;;5.30;72.00;;;;;;5054567;28;20033;-68
2021/04/12 01:57:08;;;;;;;;;;;5.30;72.10;;;;;;5056211;28;20035;-68
2021/04/12 02:00:11;;;;;;;3.33;2.75;;;5.20;71.30;;;;;;5055588;28;19913;-68
2021/04/12 02:02:50;;;;;;;3.17;2.88;;;5.20;71.70;;;;;;5058118;28;20081;-68
2021/04/12 02:05:53;;;;;;;3.53;3.17;;;5.10;71.80;;;;;;5064803;28;20480;-68
2021/04/12 02:08:25;;;;;;;;;;;5.10;71.90;;;;;;5046732;28;20024;-68
2021/04/12 02:11:03;;;;;;;4.55;3.53;;;5.00;71.20;;;;;;5054805;28;19908;-68
2021/04/12 02:13:45;;;;;;;4.05;3.65;;;4.90;72.10;;;;;;5055380;28;20396;-68
2021/04/12 02:16:51;;;;;;;4.15;3.75;;;4.80;72.30;;;;;;5054384;28;20029;-68
2021/04/12 02:19:23;;;;;;;4.40;3.92;;;4.70;72.30;;;;;;5035989;28;20037;-68
2021/04/12 02:22:19;;;;;;;5.35;4.20;;;4.70;72.60;;;;;;5053284;28;20630;-67
2021/04/12 02:25:04;;;;;;;4.15;3.60;;;4.70;72.90;;;;;;5054712;28;20029;-69
2021/04/12 02:27:51;;;;;;;4.78;4.20;;;4.70;72.80;;;;;;5055500;28;20028;-69
2021/04/12 02:30:20;;;;;;;4.25;3.70;;;4.70;72.80;;;;;;5055618;28;20047;-68
2021/04/12 02:33:08;;;;;;;6.03;3.88;;;4.70;72.80;;;;;;5056929;28;20036;-69
2021/04/12 02:35:42;;;;;;;4.80;3.92;;;4.70;73.00;;;;;;5063176;28;20492;-68
2021/04/12 02:38:19;;;;;;;6.65;4.32;;;4.70;73.10;;;;;;5045429;28;20036;-69
2021/04/12 02:40:48;;;;;;;4.45;3.97;;;4.70;73.20;;;;;;5052494;28;20098;-68
2021/04/12 02:43:35;;;;;;;5.40;4.15;;;4.60;73.10;;;;;;5063366;28;20424;-70
2021/04/12 02:46:29;;;;;;;5.05;4.40;;;4.70;73.20;;;;;;5047195;28;20028;-68
2021/04/12 02:49:00;;;;;;;4.88;4.00;;;4.70;73.10;;;;;;5056786;28;20370;-68
2021/04/12 02:51:37;;;;;;;4.85;3.95;;;4.60;72.80;;;;;;5056699;28;20110;-68
2021/04/12 02:54:19;;;;;;;7.13;4.53;;;4.60;72.90;;;;;;5055870;28;20024;-69
2021/04/12 02:57:12;;;;;;;6.50;4.63;;;4.60;73.10;;;;;;5122541;22;20472;-66
2021/04/12 03:00:11;;;;;;;6.50;4.63;;;4.60;73.20;;;;;;5045619;28;20029;-67
2021/04/12 03:02:55;;;;;;;7.03;5.53;;;4.60;73.20;;;;;;5016614;28;20025;-66
2021/04/12 03:05:27;;;;;;;6.38;4.72;;;4.50;73.30;;;;;;5015767;28;20370;-66
2021/04/12 03:08:31;;;;;;;5.03;4.00;;;4.50;73.40;;;;;;5020360;28;20476;-67
2021/04/12 03:11:15;;;;;;;6.50;4.82;;;4.50;73.30;;;;;;5027004;28;20086;-67
2021/04/12 03:13:59;;;;;;;5.65;5.05;;;4.60;73.50;;;;;;5024457;28;20343;-65
2021/04/12 03:16:31;;;;;;;6.63;4.60;;;4.60;73.30;;;;;;5029648;28;20029;-66
2021/04/12 03:19:27;;;;;;;6.32;4.95;;;4.60;73.80;;;;;;5018599;28;20476;-67
2021/04/12 03:22:08;;;;;;;6.15;4.90;;;4.50;73.20;;;;;;5015039;28;20098;-65
2021/04/12 03:24:40;;;;;;;7.30;4.55;;;4.50;73.40;;;;;;5017220;28;20021;-65
2021/04/12 03:27:27;;;;;;;5.88;5.03;;;4.40;73.40;;;;;;5022466;28;20033;-66
2021/04/12 03:30:27;;;;;;;6.43;4.82;;;4.40;73.40;;;;;;5052746;28;20557;-67
2021/04/12 03:32:58;;;;;;;6.70;5.00;;;4.40;73.60;;;;;;5024071;28;20029;-65
2021/04/12 03:35:42;;;;;;;6.45;5.18;;;4.40;73.60;;;;;;5031056;28;20029;-66
2021/04/12 03:38:49;;;;;;;5.80;4.32;;;4.40;73.70;;;;;;5033476;28;20485;-66
2021/04/12 03:41:24;;;;;;;6.18;4.85;;;4.40;73.60;;;;;;5031656;28;20057;-68
2021/04/12 03:44:34;;;;;;;8.05;5.15;;;4.50;73.50;;;;;;5014022;28;20026;-67
2021/04/12 03:47:44;;;;;;;5.78;4.38;;;4.50;73.60;;;;;;5014728;28;20123;-66
2021/04/12 03:50:28;;;;;;;6.90;4.25;;;4.50;73.50;;;;;;5021893;28;20025;-65
2021/04/12 03:53:13;;;;;;;5.35;3.95;;;4.50;73.50;;;;;;5012873;28;20030;-66
2021/04/12 03:56:08;;;;;;;5.57;4.50;;;4.50;73.50;;;;;;5020778;28;20056;-66
2021/04/12 03:59:08;;;;;;;4.82;4.25;;;4.50;73.40;;;;;;5036747;28;20036;-67
2021/04/12 04:02:05;;;;;;;4.53;4.07;;;4.50;73.30;;;;;;5051221;28;20064;-67
2021/04/12 04:04:52;;;;;;;5.45;4.28;;;4.50;73.40;;;;;;5044367;28;20079;-69
2021/04/12 04:08:15;;;;;;;4.38;3.83;;;4.50;73.30;;;;;;5012956;28;20088;-66
2021/04/12 04:11:17;;;;;;;4.97;3.77;;;4.50;73.10;;;;;;4973494;28;20022;-68
2021/04/12 04:14:20;;;;;;;4.65;4.07;;;4.50;73.20;;;;;;4987872;28;20062;-66
2021/04/12 04:17:18;;;;;;;4.57;4.10;;;4.50;73.20;;;;;;5032510;28;20025;-65
2021/04/12 04:20:21;;;;;;;5.70;4.82;;;4.50;73.20;;;;;;5031251;28;20029;-66
2021/04/12 04:23:13;;;;;;;7.80;5.38;;;4.60;73.10;;;;;;5017006;28;20025;-66
2021/04/12 04:25:51;;;;;;;6.68;5.32;;;4.50;72.90;;;;;;5015272;28;20128;-67
2021/04/12 04:28:44;;;;;;;9.77;7.40;;;4.50;73.10;;;;;;5021773;28;20076;-67
2021/04/12 04:31:32;;;;;;;8.27;6.03;;;4.50;73.30;;;;;;5038895;28;20033;-66
2021/04/12 04:34:21;;;;;;;6.20;5.55;;;4.50;73.30;;;;;;5029742;28;20033;-67
2021/04/12 04:37:23;;;;;;;7.47;6.22;;;4.50;73.30;;;;;;5012350;28;20025;-65
2021/04/12 04:39:55;;;;;;;7.88;5.82;;;4.50;73.30;;;;;;5026077;28;20033;-66
2021/04/12 04:42:55;;;;;;;8.43;6.13;;;4.50;73.30;;;;;;5028122;28;20030;-66
2021/04/12 04:45:46;;;;;;;6.32;5.68;;;4.50;73.30;;;;;;5012179;28;20025;-66
2021/04/12 04:48:33;;;;;;;7.78;5.88;;;4.60;73.20;;;;;;5027688;28;20124;-67
2021/04/12 04:51:16;;;;;;;5.78;4.97;;;4.60;73.30;;;;;;5030699;28;20108;-66
2021/04/12 04:54:34;;;;;;;7.22;5.22;;;4.50;73.10;;;;;;5012519;28;20131;-66
2021/04/12 04:56:59;;;;;;;6.43;5.18;;;4.60;73.20;;;;;;5013261;28;20112;-66
2021/04/12 04:59:58;;;;;;;7.70;5.25;;;4.60;73.00;;;;;;5027371;28;20124;-66
2021/04/12 05:02:51;;;;;;;6.78;5.60;;;4.60;73.20;;;;;;5026278;28;20033;-67
2021/04/12 05:05:22;;;;;;;;;;;4.60;73.30;;;;;;5025415;28;20067;-66
2021/04/12 05:07:57;;;;;;;8.00;5.45;;;4.60;72.60;;;;;;5035617;28;19913;-66
2021/04/12 05:10:35;;;;;;;8.10;5.25;;;4.50;73.00;;;;;;5035014;28;20025;-67
2021/04/12 05:13:26;;;;;;;7.40;5.43;;;4.50;73.00;;;;;;5032906;28;20033;-67
2021/04/12 05:16:11;;;;;;;8.60;5.40;;;4.40;73.20;;;;;;5022314;28;20052;-68
2021/04/12 05:19:13;;;;;;;7.22;4.95;;;4.40;73.20;;;;;;5033936;28;20133;-68
2021/04/12 05:21:42;;;;;;;6.20;3.90;;;4.40;73.50;;;;;;5025199;28;20025;-68
2021/04/12 05:24:36;;;;;;;6.78;4.93;;;4.40;73.20;;;;;;5032432;28;20029;-67
2021/04/12 05:27:04;;;;;;;9.07;5.25;;;4.40;73.40;;;;;;5031513;28;20044;-67
2021/04/12 05:29:57;;;;;;;5.85;5.00;;;4.50;73.50;;;;;;5039811;28;20020;-66
2021/04/12 05:32:35;;;;;;;8.60;5.05;;;4.50;73.60;;;;;;5048607;28;20025;-67
2021/04/12 05:35:35;;;;;;;7.10;5.32;;;4.50;73.40;;;;;;5049875;28;20027;-67
2021/04/12 05:38:00;;;;;;;8.35;5.40;;;4.50;73.50;;;;;;5034404;28;20115;-66
2021/04/12 05:40:46;;;;;;;10.30;5.85;;;4.50;73.40;;;;;;5035690;28;20426;-67
2021/04/12 05:43:58;;;;;;;9.63;5.80;;;4.50;73.40;;;;;;5028562;28;20453;-65
2021/04/12 05:46:57;;;;;;;7.95;5.97;;;4.50;73.40;;;;;;4981283;28;20390;-66
2021/04/12 05:49:55;;;;;;;7.50;6.20;;;4.50;73.50;;;;;;5028277;28;20053;-67
2021/04/12 05:52:45;;;;;;;10.13;5.70;;;4.60;73.60;;;;;;5027587;28;20115;-67
2021/04/12 05:55:20;;;;;;;7.95;6.03;;;4.60;73.60;;;;;;5028037;28;20022;-67
2021/04/12 05:57:52;;;;;;;9.20;6.20;;;4.70;73.60;;;;;;5039911;28;20491;-67
2021/04/12 06:00:33;;;;;;;6.55;5.45;;;4.70;73.60;;;;;;5044168;28;20036;-69
2021/04/12 06:03:08;;;;;;;9.80;5.75;;;4.70;73.40;;;;;;5035049;28;20455;-66
2021/04/12 06:05:36;;;;;;;8.32;5.60;;;4.70;73.80;;;;;;5034336;28;20036;-68
2021/04/12 06:08:27;;;;;;;8.07;5.97;;;4.60;73.50;;;;;;5035962;28;20481;-66
2021/04/12 06:11:17;;;;;;;8.45;5.90;;;4.60;73.50;;;;;;5036052;28;20021;-66
2021/04/12 06:14:13;;;;;;;8.80;5.35;;;4.60;73.50;;;;;;5015920;28;20030;-67
2021/04/12 06:16:41;;;;;;;7.18;5.68;;;4.60;73.60;;;;;;5016814;28;20029;-66
2021/04/12 06:19:39;;;;;;;10.73;6.15;;;4.60;73.60;;;;;;5016876;28;20026;-66
2021/04/12 06:22:26;;;;;;;7.30;5.45;;;4.60;73.90;;;;;;5021423;28;20406;-67
2021/04/12 06:25:16;;;;;;;8.90;6.53;;;4.60;73.80;;;;;;5035174;28;20029;-67
2021/04/12 06:27:54;;;;;;;7.53;6.38;;;4.60;73.70;;;;;;5036066;28;20028;-67
2021/04/12 06:30:41;;;;;;;9.25;5.85;;;4.70;73.70;;;;;;5038212;28;20081;-67
2021/04/12 06:33:10;;;;;;;9.95;5.82;;;4.70;73.70;;;;;;5035474;28;20025;-67
2021/04/12 06:35:45;;;;;;;7.68;5.03;;;4.70;73.50;;;;;;5034177;28;20116;-67
2021/04/12 06:38:21;;;;;;;9.13;6.00;;;4.70;73.60;;;;;;5018070;28;20509;-66
2021/04/12 06:41:17;;;;;;;7.78;5.50;;;4.80;73.70;;;;;;5022137;28;20468;-67
2021/04/12 06:43:55;;;;;;;6.80;5.25;;;4.80;73.70;;;;;;5033292;28;20035;-67
2021/04/12 06:46:39;;;;;;;9.52;5.47;;;4.80;73.50;;;;;;5035654;28;20543;-68
2021/04/12 06:49:43;;;;;;;10.20;6.15;;;4.80;73.30;;;;;;5035135;28;20087;-70
2021/04/12 06:52:24;;;;;;;9.75;6.15;;;4.90;73.40;;;;;;5023401;28;20024;-68
2021/04/12 06:55:01;;;;;;;11.40;6.05;;;4.80;73.40;;;;;;5018902;28;20508;-69
2021/04/12 06:57:27;;;;;;;11.88;6.35;;;4.80;73.40;;;;;;5016207;28;20089;-68
2021/04/12 07:00:34;;;;;;;9.48;6.50;;;4.90;73.40;;;;;;5043021;28;20035;-68
2021/04/12 07:03:16;;;;;;;8.65;6.35;;;4.80;73.40;;;;;;4961551;28;20066;-69
2021/04/12 07:06:11;;;;;;;8.30;6.45;;;4.80;73.30;;;;;;5035182;28;20028;-69
2021/04/12 07:09:13;;;;;;;8.63;6.13;;;4.80;73.30;;;;;;5017096;28;20076;-69
2021/04/12 07:11:54;;;;;;;8.93;6.22;;;4.80;73.40;;;;;;5018615;28;20033;-71
2021/04/12 07:14:53;;;;;;;8.50;5.90;;;4.90;73.30;;;;;;5029799;28;20025;-70
2021/04/12 07:18:03;;;;;;;10.55;7.13;;;4.80;73.30;;;;;;5023004;28;20561;-71
2021/04/12 07:20:47;;;;;;;8.68;6.55;;;4.80;73.30;;;;;;5001709;28;20047;-70
2021/04/12 07:23:32;;;;;;;7.88;6.13;;;4.90;73.40;;;;;;5033813;28;20025;-68
2021/04/12 07:26:25;;;;;;;9.27;6.93;;;4.90;73.50;;;;;;5032079;28;20024;-69
2021/04/12 07:29:29;;;;;;;9.68;6.53;;;5.00;73.60;;;;;;5042734;28;20420;-69
2021/04/12 07:32:36;;;;;;;7.43;6.10;;;5.10;73.50;;;;;;5032881;28;20061;-68
2021/04/12 07:35:28;;;;;;;9.00;6.28;;;5.20;73.40;;;;;;5013737;28;20056;-69
2021/04/12 07:38:15;;;;;;;7.82;6.40;;;5.30;73.30;;;;;;5016152;28;20025;-68
2021/04/12 07:41:22;;;;;;;8.07;5.95;;;5.30;73.20;;;;;;5014934;28;20485;-69
2021/04/12 07:44:00;;;;;;;9.65;6.45;;;5.40;73.20;;;;;;5034108;28;20025;-68
2021/04/12 07:46:56;;;;;;;10.13;7.00;;;5.40;73.20;;;;;;5024452;28;20022;-68
2021/04/12 07:49:57;;;;;;;8.18;6.30;;;5.50;73.20;;;;;;5014379;28;20104;-68
2021/04/12 07:52:45;;;;;;;8.98;6.15;;;5.50;73.00;;;;;;5030067;28;20032;-68
2021/04/12 07:55:13;;;;;;;8.52;6.43;;;5.60;73.00;;;;;;5028864;28;20029;-68
2021/04/12 07:58:10;;;;;;;10.90;6.63;;;5.60;73.00;;;;;;5031733;28;20032;-68
2021/04/12 08:01:03;;;;;;;8.82;6.03;;;5.60;72.90;;;;;;5048801;28;20166;-68
2021/04/12 08:03:47;;;;;;;;;;;5.70;73.00;;;;;;5034163;28;20074;-68
2021/04/12 08:06:32;;;;;;;8.38;5.93;;;5.80;72.50;;;;;;5020261;28;19944;-68
2021/04/12 08:09:09;;;;;;;9.85;6.55;;;5.80;72.60;;;;;;5031571;28;20029;-68
2021/04/12 08:11:53;;;;;;;8.18;6.32;;;5.90;72.40;;;;;;5013868;28;20434;-68
2021/04/12 08:14:56;;;;;;;8.70;5.82;;;5.80;73.00;;;;;;5045956;28;20033;-68
2021/04/12 08:17:45;;;;;;;;;;;5.90;72.70;;;;;;5023394;28;20029;-69
2021/04/12 08:20:17;;;;;;;8.25;5.40;;;5.90;72.20;;;;;;5052993;28;19938;-68
2021/04/12 08:23:04;;;;;;;5.37;4.30;;;5.90;72.50;;;;;;5025081;28;20025;-67
2021/04/12 08:25:30;;;;;;;7.78;5.00;;;5.90;72.30;;;;;;5016736;28;20268;-71
2021/04/12 08:28:11;;;;;;;5.47;4.97;;;5.90;72.40;;;;;;5028681;28;20025;-68
2021/04/12 08:31:10;;;;;;;6.75;5.18;;;5.90;72.50;;;;;;5039308;28;20078;-67
2021/04/12 08:34:11;;;;;;;6.32;4.70;;;5.90;72.50;;;;;;5033530;28;20504;-68
2021/04/12 08:37:02;;;;;;;9.55;5.90;;;6.00;72.20;;;;;;5028967;28;20477;-67
2021/04/12 08:39:48;;;;;;;7.70;5.25;;;6.00;72.50;;;;;;5033215;28;20025;-67
2021/04/12 08:42:39;;;;;;;7.63;4.28;;;6.10;72.30;;;;;;5013627;28;20437;-67
2021/04/12 08:45:51;;;;;;;5.82;3.83;;;6.10;72.10;;;;;;5013232;28;20056;-67
2021/04/12 08:48:43;;;;;;;8.60;4.38;;;6.00;71.90;;;;;;5013750;28;20030;-66
2021/04/12 08:51:40;;;;;;;4.78;4.20;;;6.10;71.90;;;;;;5033061;28;20124;-68
2021/04/12 08:54:43;;;;;;;6.10;4.20;;;6.10;72.00;;;;;;5031278;28;20029;-67
2021/04/12 08:57:31;;;;;;;4.57;3.47;;;6.10;72.10;;;;;;5032971;28;20122;-68
2021/04/12 09:00:28;;;;;;;5.20;3.25;;;6.20;71.80;;;;;;5027348;28;20024;-67
2021/04/12 09:03:19;;;;;;;5.82;3.55;;;6.20;71.60;;;;;;5053254;28;20056;-67
2021/04/12 09:05:59;;;;;;;4.72;3.58;;;6.10;71.50;;;;;;5057382;22;20044;-88
2021/04/12 09:08:51;;;;;;;4.03;3.42;;;6.10;71.60;;;;;;5042812;28;20029;-89
2021/04/12 09:11:39;;;;;;;4.97;3.22;;;6.10;71.30;;;;;;5033009;28;20025;-88
2021/04/12 09:14:13;;;;;;;5.20;3.50;;;6.00;71.70;;;;;;5054398;28;20391;-88
2021/04/12 09:16:50;;;;;;;4.50;3.67;;;6.10;71.60;;;;;;5016543;28;20038;-87
2021/04/12 09:19:35;;;;;;;5.57;3.72;;;6.20;71.80;;;;;;5015891;28;20029;-88
2021/04/12 09:22:38;;;;;;;5.25;3.42;;;6.30;71.80;;;;;;5016146;28;20444;-88
2021/04/12 09:25:41;;;;;;;7.13;4.18;;;6.30;71.10;;;;;;5015939;28;20018;-89
2021/04/12 09:28:21;;;;;;;4.57;3.55;;;6.30;71.20;;;;;;5016060;28;20053;-88
2021/04/12 09:31:08;;;;;;;4.18;3.42;;;6.40;71.70;;;;;;5016371;28;20077;-89
2021/04/12 09:33:43;;;;;;;10.93;7.32;;;6.60;71.20;;;;;;5016767;28;20026;-89
2021/04/12 09:36:37;;;;;;;5.40;3.08;;;6.60;71.10;;;;;;5020314;28;20053;-91
2021/04/12 09:39:24;;;;;;;4.20;3.17;;;6.70;70.70;;;;;;5044133;28;20025;-91
2021/04/12 09:42:08;;;;;;;3.90;2.85;;;6.70;70.50;;;;;;5034474;28;20069;-91
2021/04/12 09:44:54;;;;;;;4.13;2.60;;;6.80;70.30;;;;;;5033712;28;20021;-90
2021/04/12 09:47:45;;;;;;;4.72;2.67;;;6.80;70.20;;;;;;5033988;28;20018;-88
2021/04/12 09:50:30;;;;;;;3.90;2.95;;;6.70;69.70;;;;;;5035223;28;20041;-90
2021/04/12 09:53:19;;;;;;;4.43;3.50;;;6.60;69.30;;;;;;5028236;28;20025;-88
2021/04/12 09:56:10;;;;;;;3.35;3.05;;;6.50;69.50;;;;;;5034285;28;20026;-88
2021/04/12 09:58:55;;;;;;;5.03;3.60;;;6.40;69.90;;;;;;5017610;28;20037;-87
2021/04/12 10:01:36;;;;;;;6.25;3.67;;;6.30;69.80;;;;;;5017984;28;20038;-87
2021/04/12 10:04:40;;;;;;;5.22;3.50;;;6.30;70.00;;;;;;5019118;28;20484;-88
2021/04/12 10:07:12;;;;;;;4.70;3.47;;;6.30;70.10;;;;;;5025864;28;20449;-89
2021/04/12 10:09:56;;;;;;;5.20;3.17;;;6.30;70.20;;;;;;5033465;28;20056;-89
2021/04/12 10:12:29;;;;;;;6.32;3.10;;;6.40;70.30;;;;;;5017326;28;20030;-90
2021/04/12 10:15:14;;;;;;;6.50;3.42;;;6.50;69.80;;;;;;5016662;28;20080;-88
2021/04/12 10:17:45;;;;;;;5.10;2.78;;;6.60;69.90;;;;;;5016984;28;20118;-88
2021/04/12 10:20:15;;;;;;;4.85;2.78;;;6.60;69.40;;;;;;5016982;28;20102;-89
2021/04/12 10:22:53;;;;;;;2.88;2.47;;;6.70;69.50;;;;;;5018112;28;20480;-89
2021/04/12 10:25:37;;;;;;;2.58;2.38;;;6.80;69.50;;;;;;5025255;28;20033;-89
2021/04/12 10:28:19;;;;;;;3.33;2.60;;;6.90;68.90;;;;;;5017922;28;20026;-89
2021/04/12 10:30:55;;;;;;;3.83;2.28;;;7.00;68.50;;;;;;5018091;28;20034;-88
2021/04/12 10:33:43;;;;;;;3.33;2.30;;;7.10;68.40;;;;;;5018051;28;20034;-89
2021/04/12 10:36:23;;;;;;;3.80;2.28;;;7.10;68.20;;;;;;5025128;28;20400;-88
2021/04/12 10:39:03;;;;;;;2.05;1.77;;;7.20;68.10;;;;;;5022673;28;20042;-89
2021/04/12 10:41:33;;;;;;;2.85;1.70;;;7.30;67.70;;;;;;5003648;28;20022;-89
2021/04/12 10:44:21;;;;;;;2.78;2.40;;;7.30;67.40;;;;;;5019363;28;20034;-88
2021/04/12 10:47:21;;;;;;;3.28;2.00;;;7.30;67.00;;;;;;5039287;28;20017;-89
2021/04/12 10:49:59;;;;;;;6.03;4.35;;;7.30;67.10;;;;;;5028817;28;20117;-88
2021/04/12 10:52:38;;;;;;;3.88;2.60;;;7.30;66.30;;;;;;5009638;28;20025;-90
2021/04/12 10:55:26;;;;;;;2.00;1.85;;;7.30;66.20;;;;;;5015493;28;20094;-87
2021/04/12 10:58:24;;;;;;;2.85;1.90;;;7.20;65.80;;;;;;4997237;28;20037;-87
2021/04/12 11:01:02;;;;;;;3.70;2.03;;;7.20;65.70;;;;;;5006175;28;20120;-88
2021/04/12 11:03:52;;;;;;;4.40;1.92;;;7.20;65.90;;;;;;4996540;28;20034;-88
2021/04/12 11:06:22;;;;;;;2.65;1.77;;;7.20;65.70;;;;;;4996680;28;20382;-87
2021/04/12 11:08:53;;;;;;;5.30;2.75;;;7.20;65.60;;;;;;5005461;28;20028;-89
2021/04/12 11:11:22;;;;;;;2.67;2.00;;;7.20;65.70;;;;;;5029477;28;20029;-90
2021/04/12 11:14:15;;;;;;;2.45;2.08;;;7.10;65.30;;;;;;5016540;28;20026;-90
2021/04/12 11:16:47;;;;;;;3.08;1.95;;;7.00;64.80;;;;;;5016418;28;20445;-89
2021/04/12 11:19:17;;;;;;;;;;;7.10;65.20;;;;;;5016598;28;20080;-90
2021/04/12 11:21:52;;;;;;;5.95;1.70;;;7.10;64.60;;;;;;5016603;28;19910;-89
2021/04/12 11:24:42;;;;;;;2.88;2.22;;;7.10;64.50;;;;;;5016243;28;20036;-90
2021/04/12 11:27:32;;;;;;;3.05;1.98;;;7.10;64.80;;;;;;5026139;28;20018;-89
2021/04/12 11:30:17;;;;;;;48.63;26.05;;;7.10;65.00;;;;;;5015758;28;20041;-89
2021/04/12 11:33:07;;;;;;;4.35;2.20;;;7.20;65.20;;;;;;5015938;28;20044;-89
2021/04/12 11:35:40;;;;;;;4.28;2.20;;;7.30;64.40;;;;;;5016509;28;20395;-88
2021/04/12 11:38:13;;;;;;;2.70;2.22;;;7.20;63.50;;;;;;5016056;28;20574;-89
2021/04/12 11:40:50;;;;;;;4.57;2.60;;;7.00;63.20;;;;;;5015848;28;20030;-88
2021/04/12 11:43:23;;;;;;;2.97;2.30;;;6.90;63.20;;;;;;5016646;28;20022;-89
2021/04/12 11:45:58;;;;;;;3.85;2.63;;;6.90;63.70;;;;;;5017377;28;20580;-88
2021/04/12 11:49:17;;;;;;;8.93;2.75;;;6.90;64.00;;;;;;5016862;28;20049;-88
2021/04/12 11:52:02;;;;;;;5.90;2.60;;;7.10;64.60;;;;;;4992157;28;20030;-88
2021/04/12 11:54:51;;;;;;;6.63;2.67;;;7.10;64.10;;;;;;5014111;28;20175;-88
2021/04/12 11:57:40;;;;;;;4.60;2.38;;;7.20;64.30;;;;;;5020253;28;20071;-89
2021/04/12 12:00:34;;;;;;;3.80;2.20;;;7.10;64.00;;;;;;5017688;28;20022;-88
2021/04/12 12:03:21;;;;;;;3.72;2.50;;;7.10;64.30;;;;;;5016948;28;20053;-88
2021/04/12 12:05:58;;;;;;;3.83;2.50;;;7.10;64.50;;;;;;5016708;28;20036;-89
2021/04/12 12:08:35;;;;;;;5.35;2.00;;;7.10;64.50;;;;;;4999216;28;20369;-90
2021/04/12 12:11:18;;;;;;;2.00;1.70;;;7.10;64.40;;;;;;4997678;28;20034;-88
2021/04/12 12:14:00;;;;;;;;;;;7.20;63.20;;;;;;4997764;28;20033;-87
2021/04/12 12:16:36;;;;;;;1.90;1.70;;;7.20;63.90;;;;;;4998419;28;19965;-87
2021/04/12 12:19:08;;;;;;;1.92;1.83;;;7.30;63.40;;;;;;4998485;28;20018;-87
2021/04/12 12:21:56;;;;;;;1.98;1.75;;;7.40;62.50;;;;;;4999938;28;20030;-88
2021/04/12 12:24:43;;;;;;;3.10;1.95;;;7.50;62.60;;;;;;5002289;28;20014;-87
2021/04/12 12:27:24;;;;;;;2.30;1.70;;;7.70;63.10;;;;;;5000508;28;20107;-88
2021/04/12 12:30:54;;;;;;;2.90;1.80;;;7.80;62.10;;;;;;4998708;28;20022;-89
2021/04/12 12:33:56;;;;;;;3.85;2.20;;;7.90;61.20;;;;;;4954893;28;20088;-89
2021/04/12 12:36:40;;;;;;;2.03;1.80;;;8.10;61.40;;;;;;4959050;28;20057;-88
2021/04/12 12:39:50;;;;;;;2.30;1.67;;;8.30;61.30;;;;;;5001759;28;20027;-88
2021/04/12 12:42:25;;;;;;;3.22;1.63;;;8.40;60.80;;;;;;4982686;28;20041;-88
2021/04/12 12:44:55;;;;;;;3.25;1.70;;;8.50;60.70;;;;;;5022863;28;20026;-89
2021/04/12 12:47:25;;;;;;;2.95;1.65;;;8.50;60.60;;;;;;5024849;28;20029;-90
2021/04/12 12:49:58;;;;;;;1.52;1.27;;;8.70;59.40;;;;;;5036206;28;20022;-91
2021/04/12 12:52:37;;;;;;;3.95;1.70;;;8.70;58.60;;;;;;5022262;28;20045;-88
2021/04/12 12:55:12;;;;;;;2.08;1.60;;;8.70;59.20;;;;;;5018649;28;20018;-89
2021/04/12 12:57:43;;;;;;;1.92;1.52;;;8.80;58.90;;;;;;5016767;28;20029;-88
2021/04/12 13:00:17;;;;;;;2.20;1.40;;;8.90;59.20;;;;;;5017104;28;20045;-88
2021/04/12 13:02:44;;;;;;;1.33;1.23;;;8.90;59.30;;;;;;5016567;28;20056;-90
2021/04/12 13:05:18;;;;;;;2.22;1.10;;;9.00;59.10;;;;;;5014438;28;20040;-87
2021/04/12 13:07:45;;;;;;;2.05;1.52;;;9.00;58.90;;;;;;5014752;28;20392;-88
2021/04/12 13:10:26;;;;;;;2.92;1.40;;;9.00;59.40;;;;;;5014912;28;20025;-87
2021/04/12 13:12:53;;;;;;;2.35;1.83;;;8.90;59.00;;;;;;5015228;28;20033;-89
2021/04/12 13:15:25;;;;;;;2.30;1.70;;;9.00;58.90;;;;;;5014678;28;20038;-89
2021/04/12 13:17:52;;;;;;;1.88;1.35;;;9.00;58.50;;;;;;5016618;28;20040;-89
2021/04/12 13:20:36;;;;;;;2.53;1.52;;;9.10;58.70;;;;;;5014565;28;20400;-89
2021/04/12 13:23:25;;;;;;;2.85;1.50;;;9.20;58.30;;;;;;5012474;28;20061;-88
2021/04/12 13:25:56;;;;;;;2.65;1.60;;;9.20;58.30;;;;;;5018899;28;20403;-89
2021/04/12 13:28:41;;;;;;;3.90;1.67;;;9.30;58.00;;;;;;5034897;28;20472;-88
2021/04/12 13:31:15;;;;;;;1.95;1.40;;;9.30;57.90;;;;;;5017874;28;20062;-89
2021/04/12 13:33:46;;;;;;;2.10;1.30;;;9.40;58.10;;;;;;5001616;28;20057;-89
2021/04/12 13:36:18;;;;;;;1.63;1.52;;;9.40;57.60;;;;;;5019024;28;20029;-91
2021/04/12 13:38:45;;;;;;;2.40;1.40;;;9.40;57.30;;;;;;5015246;28;20484;-89
2021/04/12 13:41:20;;;;;;;3.80;2.38;;;9.50;56.80;;;;;;5019241;28;20048;-89
2021/04/12 13:43:48;;;;;;;1.75;1.50;;;9.60;57.60;;;;;;5020222;28;20109;-89
2021/04/12 13:46:23;;;;;;;3.40;1.73;;;9.60;56.60;;;;;;5020788;28;20030;-89
2021/04/12 13:49:02;;;;;;;1.60;1.48;;;9.60;55.00;;;;;;5020842;28;20030;-88
2021/04/12 13:51:40;;;;;;;6.18;2.83;;;9.60;55.30;;;;;;5019962;28;20034;-88
2021/04/12 13:54:31;;;;;;;3.05;1.90;;;9.50;55.80;;;;;;5024863;28;20095;-90
2021/04/12 13:57:05;;;;;;;1.70;1.60;;;9.60;56.20;;;;;;5040716;28;20032;-90
2021/04/12 13:59:37;;;;;;;2.92;1.77;;;9.60;55.40;;;;;;5039346;28;20014;-91
2021/04/12 14:02:13;;;;;;;2.53;1.70;;;9.40;54.40;;;;;;5039301;28;20034;-91
2021/04/12 14:04:46;;;;;;;2.25;1.60;;;9.30;54.40;;;;;;5043483;28;20026;-91
2021/04/12 14:07:37;;;;;;;2.80;1.67;;;9.10;54.10;;;;;;5015638;28;20032;-89
2021/04/12 14:10:09;;;;;;;2.20;1.50;;;8.90;53.80;;;;;;5026619;28;20026;-89
2021/04/12 14:12:38;;;;;;;;;;;8.70;55.10;;;;;;5032862;28;20096;-89
2021/04/12 14:15:11;;;;;;;2.33;1.60;;;8.60;55.80;;;;;;5017707;28;19905;-89
2021/04/12 14:17:57;;;;;;;1.50;1.40;;;8.60;56.00;;;;;;5017192;28;20033;-89
2021/04/12 14:20:30;;;;;;;3.20;1.70;;;8.60;56.10;;;;;;5017007;28;20038;-89
2021/04/12 14:23:02;;;;;;;1.77;1.50;;;8.60;56.20;;;;;;5016892;28;20045;-89
2021/04/12 14:25:38;;;;;;;3.13;1.80;;;8.60;56.20;;;;;;5026737;28;20028;-89
2021/04/12 14:28:14;;;;;;;2.97;1.77;;;8.60;56.40;;;;;;5037905;28;20029;-88
2021/04/12 14:31:08;;;;;;;2.63;1.42;;;8.60;56.40;;;;;;5037229;28;20051;-88
2021/04/12 14:33:40;;;;;;;3.35;1.80;;;8.60;56.50;;;;;;5015763;28;20404;-89